sensor_id;sensor_type;location;lat;lon;timestamp;temperature;humidity
30001;DHT22;16845;48.670;9.000;2023-01-13T00:00:29;8.70;99.90
30001;DHT22;16845;48.670;9.000;2023-01-13T00:02:57;8.80;99.90
30001;DHT22;16845;48.670;9.000;2023-01-13T00:05:25;8.80;99.90
30001;DHT22;16845;48.670;9.000;2023-01-13T00:07:54;8.80;99.90
30001;DHT22;16845;48.670;9.000;2023-01-13T00:10:22;8.80;99.90
30001;DHT22;16845;48.670;9.000;2023-01-13T00:12:50;8.70;99.90
30001;DHT22;16845;48.670;9.000;2023-01-13T00:15:19;8.70;99.90
30001;DHT22;16845;48.670;9.000;2023-01-13T00:17:48;8.70;99.90
30001;DHT22;16845;48.670;9.000;2023-01-13T00:20:16;8.70;99.90
30001;DHT22;16845;48.670;9.000;2023-01-13T00:22:44;8.70;99.90
30001;DHT22;16845;48.670;9.000;2023-01-13T00:25:12;8.70;99.90
30001;DHT22;16845;48.670;9.000;2023-01-13T00:27:40;8.80;99.90
30001;DHT22;16845;48.670;9.000;2023-01-13T00:30:09;8.70;99.90
30001;DHT22;16845;48.670;9.000;2023-01-13T00:32:37;8.80;99.90
30001;DHT22;16845;48.670;9.000;2023-01-13T00:35:08;8.80;99.90
30001;DHT22;16845;48.670;9.000;2023-01-13T00:37:36;8.80;99.90
30001;DHT22;16845;48.670;9.000;2023-01-13T00:40:06;8.90;99.90
30001;DHT22;16845;48.670;9.000;2023-01-13T00:42:34;8.90;99.90
30001;DHT22;16845;48.670;9.000;2023-01-13T00:45:34;8.90;99.90
30001;DHT22;16845;48.670;9.000;2023-01-13T00:48:02;9.00;99.90
30001;DHT22;16845;48.670;9.000;2023-01-13T00:50:32;9.00;99.90
30001;DHT22;16845;48.670;9.000;2023-01-13T00:53:00;9.00;99.90
30001;DHT22;16845;48.670;9.000;2023-01-13T00:55:30;9.10;99.90
30001;DHT22;16845;48.670;9.000;2023-01-13T00:57:58;9.10;99.90
30001;DHT22;16845;48.670;9.000;2023-01-13T01:00:29;9.10;99.90
30001;DHT22;16845;48.670;9.000;2023-01-13T01:02:58;9.00;99.90
30001;DHT22;16845;48.670;9.000;2023-01-13T01:05:25;9.00;99.90
30001;DHT22;16845;48.670;9.000;2023-01-13T01:07:55;9.00;99.90
30001;DHT22;16845;48.670;9.000;2023-01-13T01:10:23;8.90;99.90
30001;DHT22;16845;48.670;9.000;2023-01-13T01:12:51;8.90;99.90
30001;DHT22;16845;48.670;9.000;2023-01-13T01:15:19;9.00;99.90
30001;DHT22;16845;48.670;9.000;2023-01-13T01:17:47;9.00;99.90
30001;DHT22;16845;48.670;9.000;2023-01-13T01:20:15;9.00;99.90
30001;DHT22;16845;48.670;9.000;2023-01-13T01:22:43;9.10;99.90
30001;DHT22;16845;48.670;9.000;2023-01-13T01:25:13;9.10;99.90
30001;DHT22;16845;48.670;9.000;2023-01-13T01:27:41;9.20;99.90
30001;DHT22;16845;48.670;9.000;2023-01-13T01:30:10;9.10;99.90
30001;DHT22;16845;48.670;9.000;2023-01-13T01:32:38;9.10;99.90
30001;DHT22;16845;48.670;9.000;2023-01-13T01:35:07;9.10;99.90
30001;DHT22;16845;48.670;9.000;2023-01-13T01:37:35;9.10;99.90
30001;DHT22;16845;48.670;9.000;2023-01-13T01:40:03;9.20;99.90
30001;DHT22;16845;48.670;9.000;2023-01-13T01:42:33;9.20;99.90
30001;DHT22;16845;48.670;9.000;2023-01-13T01:45:20;9.10;99.90
30001;DHT22;16845;48.670;9.000;2023-01-13T01:47:52;9.00;99.90
30001;DHT22;16845;48.670;9.000;2023-01-13T01:50:22;8.90;99.90
30001;DHT22;16845;48.670;9.000;2023-01-13T01:52:54;8.80;99.90
30001;DHT22;16845;48.670;9.000;2023-01-13T01:55:26;8.70;99.90
30001;DHT22;16845;48.670;9.000;2023-01-13T01:58:02;8.60;99.90
30001;DHT22;16845;48.670;9.000;2023-01-13T02:00:32;8.50;99.90
30001;DHT22;16845;48.670;9.000;2023-01-13T02:03:02;8.50;99.90
30001;DHT22;16845;48.670;9.000;2023-01-13T02:05:30;8.50;99.90
30001;DHT22;16845;48.670;9.000;2023-01-13T02:08:00;8.60;99.90
30001;DHT22;16845;48.670;9.000;2023-01-13T02:10:29;8.70;99.90
30001;DHT22;16845;48.670;9.000;2023-01-13T02:13:00;8.70;99.90
30001;DHT22;16845;48.670;9.000;2023-01-13T02:15:34;8.80;99.90
30001;DHT22;16845;48.670;9.000;2023-01-13T02:18:30;8.80;99.90
30001;DHT22;16845;48.670;9.000;2023-01-13T02:24:44;8.90;99.90
30001;DHT22;16845;48.670;9.000;2023-01-13T02:27:46;8.90;99.90
30001;DHT22;16845;48.670;9.000;2023-01-13T02:33:36;9.00;99.90
30001;DHT22;16845;48.670;9.000;2023-01-13T02:36:11;9.00;99.90
30001;DHT22;16845;48.670;9.000;2023-01-13T02:38:47;9.00;99.90
30001;DHT22;16845;48.670;9.000;2023-01-13T02:41:23;8.90;99.90
30001;DHT22;16845;48.670;9.000;2023-01-13T02:44:11;9.00;99.90
30001;DHT22;16845;48.670;9.000;2023-01-13T02:46:48;8.90;99.90
30001;DHT22;16845;48.670;9.000;2023-01-13T02:49:24;8.90;99.90
30001;DHT22;16845;48.670;9.000;2023-01-13T02:51:58;8.90;99.90
30001;DHT22;16845;48.670;9.000;2023-01-13T02:54:28;9.00;99.90
30001;DHT22;16845;48.670;9.000;2023-01-13T02:56:57;8.90;99.90
30001;DHT22;16845;48.670;9.000;2023-01-13T02:59:28;8.90;99.90
30001;DHT22;16845;48.670;9.000;2023-01-13T03:01:58;8.90;99.90
30001;DHT22;16845;48.670;9.000;2023-01-13T03:04:47;8.90;99.90
30001;DHT22;16845;48.670;9.000;2023-01-13T03:07:39;8.80;99.90
30001;DHT22;16845;48.670;9.000;2023-01-13T03:10:18;8.80;99.90
30001;DHT22;16845;48.670;9.000;2023-01-13T03:12:54;8.80;99.90
30001;DHT22;16845;48.670;9.000;2023-01-13T03:15:31;8.80;99.90
30001;DHT22;16845;48.670;9.000;2023-01-13T03:18:17;8.80;99.90
30001;DHT22;16845;48.670;9.000;2023-01-13T03:20:53;8.80;99.90
30001;DHT22;16845;48.670;9.000;2023-01-13T03:23:29;8.80;99.90
30001;DHT22;16845;48.670;9.000;2023-01-13T03:26:05;8.80;99.90
30001;DHT22;16845;48.670;9.000;2023-01-13T03:28:39;8.90;99.90
30001;DHT22;16845;48.670;9.000;2023-01-13T03:31:13;8.90;99.90
30001;DHT22;16845;48.670;9.000;2023-01-13T03:33:46;9.00;99.90
30001;DHT22;16845;48.670;9.000;2023-01-13T03:36:17;8.90;99.90
30001;DHT22;16845;48.670;9.000;2023-01-13T03:38:51;8.90;99.90
30001;DHT22;16845;48.670;9.000;2023-01-13T03:41:23;8.90;99.90
30001;DHT22;16845;48.670;9.000;2023-01-13T03:43:58;8.90;99.90
30001;DHT22;16845;48.670;9.000;2023-01-13T03:46:52;8.90;99.90
30001;DHT22;16845;48.670;9.000;2023-01-13T03:49:28;8.90;99.90
30001;DHT22;16845;48.670;9.000;2023-01-13T03:52:01;8.90;99.90
30001;DHT22;16845;48.670;9.000;2023-01-13T03:54:33;8.90;99.90
30001;DHT22;16845;48.670;9.000;2023-01-13T03:57:06;8.90;99.90
30001;DHT22;16845;48.670;9.000;2023-01-13T03:59:39;8.90;99.90
30001;DHT22;16845;48.670;9.000;2023-01-13T04:02:11;8.90;99.90
30001;DHT22;16845;48.670;9.000;2023-01-13T04:04:44;8.90;99.90
30001;DHT22;16845;48.670;9.000;2023-01-13T04:07:19;8.90;99.90
30001;DHT22;16845;48.670;9.000;2023-01-13T04:09:54;8.90;99.90
30001;DHT22;16845;48.670;9.000;2023-01-13T04:12:26;8.90;99.90
30001;DHT22;16845;48.670;9.000;2023-01-13T04:15:15;9.00;99.90
30001;DHT22;16845;48.670;9.000;2023-01-13T04:17:44;8.90;99.90
30001;DHT22;16845;48.670;9.000;2023-01-13T04:20:13;9.00;99.90
30001;DHT22;16845;48.670;9.000;2023-01-13T04:22:41;8.90;99.90
30001;DHT22;16845;48.670;9.000;2023-01-13T04:25:09;8.90;99.90
30001;DHT22;16845;48.670;9.000;2023-01-13T04:27:37;9.00;99.90
30001;DHT22;16845;48.670;9.000;2023-01-13T04:30:06;8.90;99.90
30001;DHT22;16845;48.670;9.000;2023-01-13T04:32:34;9.00;99.90
30001;DHT22;16845;48.670;9.000;2023-01-13T04:35:02;9.00;99.90
30001;DHT22;16845;48.670;9.000;2023-01-13T04:37:32;9.00;99.90
30001;DHT22;16845;48.670;9.000;2023-01-13T04:40:00;9.00;99.90
30001;DHT22;16845;48.670;9.000;2023-01-13T04:42:28;9.00;99.90
30001;DHT22;16845;48.670;9.000;2023-01-13T04:44:56;9.00;99.90
30001;DHT22;16845;48.670;9.000;2023-01-13T04:47:24;9.00;99.90
30001;DHT22;16845;48.670;9.000;2023-01-13T04:49:51;9.00;99.90
30001;DHT22;16845;48.670;9.000;2023-01-13T04:52:19;9.00;99.90
30001;DHT22;16845;48.670;9.000;2023-01-13T04:54:48;9.10;99.90
30001;DHT22;16845;48.670;9.000;2023-01-13T04:57:16;9.10;99.90
30001;DHT22;16845;48.670;9.000;2023-01-13T04:59:44;9.00;99.90
30001;DHT22;16845;48.670;9.000;2023-01-13T05:02:12;9.00;99.90
30001;DHT22;16845;48.670;9.000;2023-01-13T05:04:45;9.10;99.90
30001;DHT22;16845;48.670;9.000;2023-01-13T05:07:14;9.00;99.90
30001;DHT22;16845;48.670;9.000;2023-01-13T05:09:42;9.00;99.90
30001;DHT22;16845;48.670;9.000;2023-01-13T05:12:11;8.90;99.90
30001;DHT22;16845;48.670;9.000;2023-01-13T05:14:57;9.00;99.90
30001;DHT22;16845;48.670;9.000;2023-01-13T05:17:43;9.00;99.90
30001;DHT22;16845;48.670;9.000;2023-01-13T05:20:11;9.10;99.90
30001;DHT22;16845;48.670;9.000;2023-01-13T05:22:39;9.10;99.90
30001;DHT22;16845;48.670;9.000;2023-01-13T05:25:25;9.00;99.90
30001;DHT22;16845;48.670;9.000;2023-01-13T05:27:56;9.10;99.90
30001;DHT22;16845;48.670;9.000;2023-01-13T05:30:26;9.10;99.90
30001;DHT22;16845;48.670;9.000;2023-01-13T05:32:54;9.10;99.90
30001;DHT22;16845;48.670;9.000;2023-01-13T05:35:23;9.10;99.90
30001;DHT22;16845;48.670;9.000;2023-01-13T05:37:51;9.10;99.90
30001;DHT22;16845;48.670;9.000;2023-01-13T05:40:21;9.10;99.90
30001;DHT22;16845;48.670;9.000;2023-01-13T05:43:10;9.10;99.90
30001;DHT22;16845;48.670;9.000;2023-01-13T05:45:54;9.00;99.90
30001;DHT22;16845;48.670;9.000;2023-01-13T05:48:24;9.00;99.90
30001;DHT22;16845;48.670;9.000;2023-01-13T05:50:52;9.10;99.90
30001;DHT22;16845;48.670;9.000;2023-01-13T05:53:21;9.10;99.90
30001;DHT22;16845;48.670;9.000;2023-01-13T05:55:49;9.10;99.90
30001;DHT22;16845;48.670;9.000;2023-01-13T05:58:20;9.00;99.90
30001;DHT22;16845;48.670;9.000;2023-01-13T06:00:48;9.00;99.90
30001;DHT22;16845;48.670;9.000;2023-01-13T06:03:17;9.00;99.90
30001;DHT22;16845;48.670;9.000;2023-01-13T06:05:47;9.00;99.90
30001;DHT22;16845;48.670;9.000;2023-01-13T06:08:16;8.90;99.90
30001;DHT22;16845;48.670;9.000;2023-01-13T06:10:44;9.00;99.90
30001;DHT22;16845;48.670;9.000;2023-01-13T06:13:12;9.00;99.90
30001;DHT22;16845;48.670;9.000;2023-01-13T06:15:41;9.10;99.90
30001;DHT22;16845;48.670;9.000;2023-01-13T06:18:09;9.10;99.90
30001;DHT22;16845;48.670;9.000;2023-01-13T06:20:37;9.10;99.90
30001;DHT22;16845;48.670;9.000;2023-01-13T06:23:07;9.10;99.90
30001;DHT22;16845;48.670;9.000;2023-01-13T06:25:41;9.10;99.90
30001;DHT22;16845;48.670;9.000;2023-01-13T06:28:11;9.10;99.90
30001;DHT22;16845;48.670;9.000;2023-01-13T06:30:43;9.10;99.90
30001;DHT22;16845;48.670;9.000;2023-01-13T06:33:14;9.10;99.90
30001;DHT22;16845;48.670;9.000;2023-01-13T06:35:45;9.10;99.90
30001;DHT22;16845;48.670;9.000;2023-01-13T06:38:16;9.10;99.90
30001;DHT22;16845;48.670;9.000;2023-01-13T06:40:45;9.10;99.90
30001;DHT22;16845;48.670;9.000;2023-01-13T06:43:13;9.10;99.90
30001;DHT22;16845;48.670;9.000;2023-01-13T06:45:49;9.00;99.90
30001;DHT22;16845;48.670;9.000;2023-01-13T06:48:19;9.00;99.90
30001;DHT22;16845;48.670;9.000;2023-01-13T06:50:48;9.00;99.90
30001;DHT22;16845;48.670;9.000;2023-01-13T06:53:16;9.00;99.90
30001;DHT22;16845;48.670;9.000;2023-01-13T06:55:44;9.00;99.90
30001;DHT22;16845;48.670;9.000;2023-01-13T06:58:12;9.00;99.90
30001;DHT22;16845;48.670;9.000;2023-01-13T07:00:40;8.90;99.90
30001;DHT22;16845;48.670;9.000;2023-01-13T07:03:11;9.00;99.90
30001;DHT22;16845;48.670;9.000;2023-01-13T07:05:41;8.90;99.90
30001;DHT22;16845;48.670;9.000;2023-01-13T07:08:09;9.00;99.90
30001;DHT22;16845;48.670;9.000;2023-01-13T07:10:37;9.10;99.90
30001;DHT22;16845;48.670;9.000;2023-01-13T07:13:05;9.10;99.90
30001;DHT22;16845;48.670;9.000;2023-01-13T07:15:55;9.10;99.90
30001;DHT22;16845;48.670;9.000;2023-01-13T07:18:26;9.20;99.90
30001;DHT22;16845;48.670;9.000;2023-01-13T07:20:55;9.20;99.90
30001;DHT22;16845;48.670;9.000;2023-01-13T07:23:23;9.10;99.90
30001;DHT22;16845;48.670;9.000;2023-01-13T07:25:54;9.00;99.90
30001;DHT22;16845;48.670;9.000;2023-01-13T07:28:22;9.10;99.90
30001;DHT22;16845;48.670;9.000;2023-01-13T07:30:50;9.00;99.90
30001;DHT22;16845;48.670;9.000;2023-01-13T07:33:18;9.00;99.90
30001;DHT22;16845;48.670;9.000;2023-01-13T07:35:56;9.10;99.90
30001;DHT22;16845;48.670;9.000;2023-01-13T07:38:24;9.20;99.90
30001;DHT22;16845;48.670;9.000;2023-01-13T07:40:53;9.20;99.90
30001;DHT22;16845;48.670;9.000;2023-01-13T07:43:21;9.30;99.90
30001;DHT22;16845;48.670;9.000;2023-01-13T07:46:02;9.30;99.90
30001;DHT22;16845;48.670;9.000;2023-01-13T07:48:32;9.20;99.90
30001;DHT22;16845;48.670;9.000;2023-01-13T07:51:03;9.20;99.90
30001;DHT22;16845;48.670;9.000;2023-01-13T07:53:31;9.30;99.90
30001;DHT22;16845;48.670;9.000;2023-01-13T07:56:00;9.30;99.90
30001;DHT22;16845;48.670;9.000;2023-01-13T07:58:28;9.30;99.90
30001;DHT22;16845;48.670;9.000;2023-01-13T08:00:56;9.30;99.90
30001;DHT22;16845;48.670;9.000;2023-01-13T08:03:25;9.30;99.90
30001;DHT22;16845;48.670;9.000;2023-01-13T08:05:53;9.30;99.90
30001;DHT22;16845;48.670;9.000;2023-01-13T08:08:22;9.40;99.90
30001;DHT22;16845;48.670;9.000;2023-01-13T08:10:50;9.40;99.90
30001;DHT22;16845;48.670;9.000;2023-01-13T08:13:19;9.40;99.90
30001;DHT22;16845;48.670;9.000;2023-01-13T08:15:48;9.60;99.90
30001;DHT22;16845;48.670;9.000;2023-01-13T08:18:18;9.60;99.90
30001;DHT22;16845;48.670;9.000;2023-01-13T08:20:48;9.70;99.90
30001;DHT22;16845;48.670;9.000;2023-01-13T08:23:18;9.60;99.90
30001;DHT22;16845;48.670;9.000;2023-01-13T08:25:47;9.40;99.90
30001;DHT22;16845;48.670;9.000;2023-01-13T08:28:15;9.20;99.90
30001;DHT22;16845;48.670;9.000;2023-01-13T08:30:44;8.90;99.90
30001;DHT22;16845;48.670;9.000;2023-01-13T08:33:12;8.70;99.90
30001;DHT22;16845;48.670;9.000;2023-01-13T08:35:40;8.60;99.90
30001;DHT22;16845;48.670;9.000;2023-01-13T08:38:09;8.60;99.90
30001;DHT22;16845;48.670;9.000;2023-01-13T08:40:38;8.50;99.90
30001;DHT22;16845;48.670;9.000;2023-01-13T08:43:08;8.40;99.90
30001;DHT22;16845;48.670;9.000;2023-01-13T08:45:36;8.40;99.90
30001;DHT22;16845;48.670;9.000;2023-01-13T08:48:04;8.40;99.90
30001;DHT22;16845;48.670;9.000;2023-01-13T08:50:32;8.40;99.90
30001;DHT22;16845;48.670;9.000;2023-01-13T08:53:00;8.40;99.90
30001;DHT22;16845;48.670;9.000;2023-01-13T08:55:28;8.40;99.90
30001;DHT22;16845;48.670;9.000;2023-01-13T08:57:56;8.40;99.90
30001;DHT22;16845;48.670;9.000;2023-01-13T09:00:42;8.30;99.90
30001;DHT22;16845;48.670;9.000;2023-01-13T09:03:10;8.20;99.90
30001;DHT22;16845;48.670;9.000;2023-01-13T09:05:38;8.20;99.90
30001;DHT22;16845;48.670;9.000;2023-01-13T09:08:06;8.10;99.90
30001;DHT22;16845;48.670;9.000;2023-01-13T09:10:34;8.10;99.90
30001;DHT22;16845;48.670;9.000;2023-01-13T09:13:02;8.00;99.90
30001;DHT22;16845;48.670;9.000;2023-01-13T09:15:40;8.00;99.90
30001;DHT22;16845;48.670;9.000;2023-01-13T09:18:10;8.00;99.90
30001;DHT22;16845;48.670;9.000;2023-01-13T09:20:38;8.00;99.90
30001;DHT22;16845;48.670;9.000;2023-01-13T09:23:06;8.00;99.90
30001;DHT22;16845;48.670;9.000;2023-01-13T09:25:52;8.00;99.90
30001;DHT22;16845;48.670;9.000;2023-01-13T09:28:20;7.90;99.90
30001;DHT22;16845;48.670;9.000;2023-01-13T09:30:48;7.90;99.90
30001;DHT22;16845;48.670;9.000;2023-01-13T09:33:17;7.90;99.90
30001;DHT22;16845;48.670;9.000;2023-01-13T09:36:03;7.70;99.90
30001;DHT22;16845;48.670;9.000;2023-01-13T09:38:31;7.70;99.90
30001;DHT22;16845;48.670;9.000;2023-01-13T09:40:59;7.60;99.90
30001;DHT22;16845;48.670;9.000;2023-01-13T09:43:49;7.60;99.90
30001;DHT22;16845;48.670;9.000;2023-01-13T09:46:23;7.60;99.90
30001;DHT22;16845;48.670;9.000;2023-01-13T09:49:15;7.60;99.90
30001;DHT22;16845;48.670;9.000;2023-01-13T09:51:51;7.60;99.90
30001;DHT22;16845;48.670;9.000;2023-01-13T09:54:27;7.60;99.90
30001;DHT22;16845;48.670;9.000;2023-01-13T09:56:58;7.60;99.90
30001;DHT22;16845;48.670;9.000;2023-01-13T09:59:28;7.60;99.90
30001;DHT22;16845;48.670;9.000;2023-01-13T10:02:03;7.60;99.90
30001;DHT22;16845;48.670;9.000;2023-01-13T10:04:39;7.50;99.90
30001;DHT22;16845;48.670;9.000;2023-01-13T10:07:11;7.50;99.90
30001;DHT22;16845;48.670;9.000;2023-01-13T10:09:46;7.50;99.90
30001;DHT22;16845;48.670;9.000;2023-01-13T10:12:22;7.50;99.90
30001;DHT22;16845;48.670;9.000;2023-01-13T10:15:25;7.50;99.90
30001;DHT22;16845;48.670;9.000;2023-01-13T10:17:57;7.70;99.90
30001;DHT22;16845;48.670;9.000;2023-01-13T10:20:31;8.40;99.90
30001;DHT22;16845;48.670;9.000;2023-01-13T10:23:07;9.30;99.90
30001;DHT22;16845;48.670;9.000;2023-01-13T10:25:46;10.10;99.90
30001;DHT22;16845;48.670;9.000;2023-01-13T10:28:16;10.80;99.90
30001;DHT22;16845;48.670;9.000;2023-01-13T10:30:46;11.50;99.90
30001;DHT22;16845;48.670;9.000;2023-01-13T10:33:16;11.60;99.90
30001;DHT22;16845;48.670;9.000;2023-01-13T10:35:55;11.10;99.90
30001;DHT22;16845;48.670;9.000;2023-01-13T10:38:26;10.70;99.90
30001;DHT22;16845;48.670;9.000;2023-01-13T10:40:56;10.50;99.90
30001;DHT22;16845;48.670;9.000;2023-01-13T10:43:25;10.30;99.90
30001;DHT22;16845;48.670;9.000;2023-01-13T10:45:59;10.10;99.90
30001;DHT22;16845;48.670;9.000;2023-01-13T10:48:32;9.40;99.90
30001;DHT22;16845;48.670;9.000;2023-01-13T10:51:18;8.70;99.90
30001;DHT22;16845;48.670;9.000;2023-01-13T10:53:51;8.30;99.90
30001;DHT22;16845;48.670;9.000;2023-01-13T10:56:21;8.10;99.90
30001;DHT22;16845;48.670;9.000;2023-01-13T10:58:49;7.80;99.90
30001;DHT22;16845;48.670;9.000;2023-01-13T11:01:21;7.40;99.90
30001;DHT22;16845;48.670;9.000;2023-01-13T11:03:53;7.20;99.90
30001;DHT22;16845;48.670;9.000;2023-01-13T11:06:25;7.00;99.90
30001;DHT22;16845;48.670;9.000;2023-01-13T11:08:56;6.90;99.90
30001;DHT22;16845;48.670;9.000;2023-01-13T11:11:30;6.80;99.90
30001;DHT22;16845;48.670;9.000;2023-01-13T11:14:07;6.80;99.90
30001;DHT22;16845;48.670;9.000;2023-01-13T11:16:58;6.80;99.90
30001;DHT22;16845;48.670;9.000;2023-01-13T11:19:29;6.60;99.90
30001;DHT22;16845;48.670;9.000;2023-01-13T11:22:04;6.60;99.90
30001;DHT22;16845;48.670;9.000;2023-01-13T11:24:35;6.60;99.90
30001;DHT22;16845;48.670;9.000;2023-01-13T11:27:07;6.50;99.90
30001;DHT22;16845;48.670;9.000;2023-01-13T11:29:44;6.40;99.90
30001;DHT22;16845;48.670;9.000;2023-01-13T11:32:22;6.40;99.90
30001;DHT22;16845;48.670;9.000;2023-01-13T11:34:54;6.30;99.90
30001;DHT22;16845;48.670;9.000;2023-01-13T11:37:29;6.30;99.90
30001;DHT22;16845;48.670;9.000;2023-01-13T11:40:00;6.20;99.90
30001;DHT22;16845;48.670;9.000;2023-01-13T11:42:35;6.20;99.90
30001;DHT22;16845;48.670;9.000;2023-01-13T11:45:13;6.20;99.90
30001;DHT22;16845;48.670;9.000;2023-01-13T11:47:43;6.20;99.90
30001;DHT22;16845;48.670;9.000;2023-01-13T11:50:16;6.30;99.90
30001;DHT22;16845;48.670;9.000;2023-01-13T11:52:58;6.20;99.90
30001;DHT22;16845;48.670;9.000;2023-01-13T11:55:36;6.30;99.90
30001;DHT22;16845;48.670;9.000;2023-01-13T12:01:28;6.60;99.90
30001;DHT22;16845;48.670;9.000;2023-01-13T12:04:09;6.80;99.90
30001;DHT22;16845;48.670;9.000;2023-01-13T12:06:41;6.90;99.90
30001;DHT22;16845;48.670;9.000;2023-01-13T12:09:35;6.90;99.90
30001;DHT22;16845;48.670;9.000;2023-01-13T12:12:15;7.10;99.90
30001;DHT22;16845;48.670;9.000;2023-01-13T12:15:05;7.60;99.90
30001;DHT22;16845;48.670;9.000;2023-01-13T12:17:41;7.90;99.90
30001;DHT22;16845;48.670;9.000;2023-01-13T12:20:25;8.40;99.90
30001;DHT22;16845;48.670;9.000;2023-01-13T12:22:58;8.80;99.90
30001;DHT22;16845;48.670;9.000;2023-01-13T12:25:33;10.10;99.90
30001;DHT22;16845;48.670;9.000;2023-01-13T12:28:08;11.60;99.90
30001;DHT22;16845;48.670;9.000;2023-01-13T12:30:41;13.60;99.90
30001;DHT22;16845;48.670;9.000;2023-01-13T12:33:22;13.90;99.90
30001;DHT22;16845;48.670;9.000;2023-01-13T12:35:57;14.00;99.90
30001;DHT22;16845;48.670;9.000;2023-01-13T12:38:33;14.30;99.90
30001;DHT22;16845;48.670;9.000;2023-01-13T12:41:11;14.80;99.90
30001;DHT22;16845;48.670;9.000;2023-01-13T12:43:46;15.60;99.90
30001;DHT22;16845;48.670;9.000;2023-01-13T12:46:33;16.10;99.90
30001;DHT22;16845;48.670;9.000;2023-01-13T12:49:18;15.80;99.90
30001;DHT22;16845;48.670;9.000;2023-01-13T12:52:09;15.30;99.90
30001;DHT22;16845;48.670;9.000;2023-01-13T12:55:17;16.20;99.90
30001;DHT22;16845;48.670;9.000;2023-01-13T12:58:07;17.00;99.90
30001;DHT22;16845;48.670;9.000;2023-01-13T13:00:57;17.00;99.90
30001;DHT22;16845;48.670;9.000;2023-01-13T13:03:32;17.10;99.90
30001;DHT22;16845;48.670;9.000;2023-01-13T13:06:05;17.40;99.90
30001;DHT22;16845;48.670;9.000;2023-01-13T13:08:58;18.10;99.90
30001;DHT22;16845;48.670;9.000;2023-01-13T13:11:43;17.10;99.90
30001;DHT22;16845;48.670;9.000;2023-01-13T13:15:02;17.00;99.90
30001;DHT22;16845;48.670;9.000;2023-01-13T13:17:42;17.00;99.90
30001;DHT22;16845;48.670;9.000;2023-01-13T13:23:42;15.80;99.90
30001;DHT22;16845;48.670;9.000;2023-01-13T13:26:23;16.30;99.90
30001;DHT22;16845;48.670;9.000;2023-01-13T13:29:06;16.90;99.90
30001;DHT22;16845;48.670;9.000;2023-01-13T13:31:54;16.10;99.90
30001;DHT22;16845;48.670;9.000;2023-01-13T13:34:28;16.10;99.90
30001;DHT22;16845;48.670;9.000;2023-01-13T13:39:53;17.40;99.90
30001;DHT22;16845;48.670;9.000;2023-01-13T13:42:42;16.40;99.90
30001;DHT22;16845;48.670;9.000;2023-01-13T13:45:28;15.40;99.90
30001;DHT22;16845;48.670;9.000;2023-01-13T13:48:24;14.70;99.90
30001;DHT22;16845;48.670;9.000;2023-01-13T13:50:53;14.10;99.90
30001;DHT22;16845;48.670;9.000;2023-01-13T13:53:27;12.80;99.90
30001;DHT22;16845;48.670;9.000;2023-01-13T13:55:57;11.80;99.90
30001;DHT22;16845;48.670;9.000;2023-01-13T13:58:27;11.20;99.90
30001;DHT22;16845;48.670;9.000;2023-01-13T14:00:57;10.80;99.90
30001;DHT22;16845;48.670;9.000;2023-01-13T14:03:29;10.40;99.90
30001;DHT22;16845;48.670;9.000;2023-01-13T14:05:58;10.20;99.90
30001;DHT22;16845;48.670;9.000;2023-01-13T14:08:28;10.00;99.90
30001;DHT22;16845;48.670;9.000;2023-01-13T14:10:56;10.00;99.90
30001;DHT22;16845;48.670;9.000;2023-01-13T14:13:26;9.80;99.90
30001;DHT22;16845;48.670;9.000;2023-01-13T14:15:56;9.50;99.90
30001;DHT22;16845;48.670;9.000;2023-01-13T14:18:27;9.20;99.90
30001;DHT22;16845;48.670;9.000;2023-01-13T14:20:59;8.90;99.90
30001;DHT22;16845;48.670;9.000;2023-01-13T14:23:29;8.40;99.90
30001;DHT22;16845;48.670;9.000;2023-01-13T14:26:01;8.10;99.90
30001;DHT22;16845;48.670;9.000;2023-01-13T14:28:33;7.70;99.90
30001;DHT22;16845;48.670;9.000;2023-01-13T14:31:03;7.60;99.90
30001;DHT22;16845;48.670;9.000;2023-01-13T14:33:35;7.40;99.90
30001;DHT22;16845;48.670;9.000;2023-01-13T14:36:17;7.10;99.90
30001;DHT22;16845;48.670;9.000;2023-01-13T14:38:47;7.00;99.90
30001;DHT22;16845;48.670;9.000;2023-01-13T14:41:19;7.00;99.90
30001;DHT22;16845;48.670;9.000;2023-01-13T14:43:49;7.00;99.90
30001;DHT22;16845;48.670;9.000;2023-01-13T14:46:20;6.80;99.90
30001;DHT22;16845;48.670;9.000;2023-01-13T14:48:58;6.80;99.90
30001;DHT22;16845;48.670;9.000;2023-01-13T14:51:28;6.80;99.90
30001;DHT22;16845;48.670;9.000;2023-01-13T14:53:57;6.90;99.90
30001;DHT22;16845;48.670;9.000;2023-01-13T14:56:49;6.90;99.90
30001;DHT22;16845;48.670;9.000;2023-01-13T14:59:40;7.10;99.90
30001;DHT22;16845;48.670;9.000;2023-01-13T15:02:40;7.20;99.90
30001;DHT22;16845;48.670;9.000;2023-01-13T15:05:29;7.40;99.90
30001;DHT22;16845;48.670;9.000;2023-01-13T15:08:01;7.50;99.90
30001;DHT22;16845;48.670;9.000;2023-01-13T15:10:32;7.50;99.90
30001;DHT22;16845;48.670;9.000;2023-01-13T15:13:02;7.50;99.90
30001;DHT22;16845;48.670;9.000;2023-01-13T15:15:32;7.30;99.90
30001;DHT22;16845;48.670;9.000;2023-01-13T15:18:07;7.30;99.90
30001;DHT22;16845;48.670;9.000;2023-01-13T15:20:38;7.30;99.90
30001;DHT22;16845;48.670;9.000;2023-01-13T15:23:06;7.20;99.90
30001;DHT22;16845;48.670;9.000;2023-01-13T15:25:36;7.00;99.90
30001;DHT22;16845;48.670;9.000;2023-01-13T15:28:05;6.60;99.90
30001;DHT22;16845;48.670;9.000;2023-01-13T15:30:33;6.40;99.90
30001;DHT22;16845;48.670;9.000;2023-01-13T15:33:01;6.30;99.90
30001;DHT22;16845;48.670;9.000;2023-01-13T15:35:29;6.20;99.90
30001;DHT22;16845;48.670;9.000;2023-01-13T15:37:59;6.10;99.90
30001;DHT22;16845;48.670;9.000;2023-01-13T15:40:30;6.00;99.90
30001;DHT22;16845;48.670;9.000;2023-01-13T15:42:58;5.90;99.90
30001;DHT22;16845;48.670;9.000;2023-01-13T15:45:44;5.80;99.90
30001;DHT22;16845;48.670;9.000;2023-01-13T15:48:30;5.70;99.90
30001;DHT22;16845;48.670;9.000;2023-01-13T15:51:01;5.70;99.90
30001;DHT22;16845;48.670;9.000;2023-01-13T15:53:31;5.60;99.90
30001;DHT22;16845;48.670;9.000;2023-01-13T15:56:06;5.70;99.90
30001;DHT22;16845;48.670;9.000;2023-01-13T15:58:35;5.60;99.90
30001;DHT22;16845;48.670;9.000;2023-01-13T16:01:03;5.60;99.90
30001;DHT22;16845;48.670;9.000;2023-01-13T16:03:31;5.60;99.90
30001;DHT22;16845;48.670;9.000;2023-01-13T16:05:59;5.60;99.90
30001;DHT22;16845;48.670;9.000;2023-01-13T16:08:26;5.50;99.90
30001;DHT22;16845;48.670;9.000;2023-01-13T16:10:57;5.50;99.90
30001;DHT22;16845;48.670;9.000;2023-01-13T16:13:25;5.50;99.90
30001;DHT22;16845;48.670;9.000;2023-01-13T16:15:53;5.50;99.90
30001;DHT22;16845;48.670;9.000;2023-01-13T16:18:22;5.50;99.90
30001;DHT22;16845;48.670;9.000;2023-01-13T16:20:51;5.50;99.90
30001;DHT22;16845;48.670;9.000;2023-01-13T16:23:21;5.60;99.90
30001;DHT22;16845;48.670;9.000;2023-01-13T16:25:49;5.50;99.90
30001;DHT22;16845;48.670;9.000;2023-01-13T16:28:20;5.60;99.90
30001;DHT22;16845;48.670;9.000;2023-01-13T16:30:49;5.50;99.90
30001;DHT22;16845;48.670;9.000;2023-01-13T16:33:17;5.50;99.90
30001;DHT22;16845;48.670;9.000;2023-01-13T16:35:45;5.50;99.90
30001;DHT22;16845;48.670;9.000;2023-01-13T16:38:33;5.40;99.90